createdAt,value
2023-07-11T00:00:52.866Z,4.30
2023-07-11T00:03:19.825Z,3.95
2023-07-11T00:05:59.056Z,4.22
2023-07-11T00:08:25.663Z,3.85
2023-07-11T00:10:52.201Z,3.97
2023-07-11T00:13:18.831Z,3.38
2023-07-11T00:15:45.517Z,3.42
2023-07-11T00:18:12.165Z,3.80
2023-07-11T00:20:38.703Z,3.42
2023-07-11T00:23:05.408Z,3.45
2023-07-11T00:25:32.125Z,3.58
2023-07-11T00:27:58.703Z,3.80
2023-07-11T00:30:25.322Z,3.47
2023-07-11T00:32:52.072Z,3.75
2023-07-11T00:35:18.686Z,3.58
2023-07-11T00:37:45.276Z,3.55
2023-07-11T00:40:12.547Z,3.47
2023-07-11T00:42:39.123Z,3.17
2023-07-11T00:45:06.455Z,3.67
2023-07-11T00:47:33.229Z,3.90
2023-07-11T00:50:09.161Z,3.35
2023-07-11T00:52:37.876Z,3.65
2023-07-11T00:55:09.764Z,3.53
2023-07-11T00:57:40.678Z,3.60
2023-07-11T01:00:09.128Z,3.95
2023-07-11T01:02:35.952Z,3.65
2023-07-11T01:05:04.663Z,3.65
2023-07-11T01:07:35.819Z,4.03
2023-07-11T01:10:03.767Z,4.30
2023-07-11T01:12:30.635Z,3.60
2023-07-11T01:14:57.510Z,3.75
2023-07-11T01:17:28.422Z,3.85
2023-07-11T01:19:56.559Z,3.65
2023-07-11T01:22:24.763Z,3.92
2023-07-11T01:24:52.476Z,3.70
2023-07-11T01:27:21.125Z,3.72
2023-07-11T01:29:50.470Z,3.83
2023-07-11T01:32:18.502Z,3.60
2023-07-11T01:34:45.167Z,3.65
2023-07-11T01:37:12.248Z,3.83
2023-07-11T01:39:39.387Z,3.33
2023-07-11T01:42:06.454Z,3.75
2023-07-11T01:44:33.663Z,4.10
2023-07-11T01:47:03.341Z,3.90
2023-07-11T01:49:30.401Z,3.70
2023-07-11T01:52:12.436Z,3.90
2023-07-11T01:54:39.020Z,3.88
2023-07-11T01:57:06.703Z,3.80
2023-07-11T01:59:33.277Z,4.20
2023-07-11T02:01:59.869Z,4.03
2023-07-11T02:04:27.345Z,4.25
2023-07-11T02:06:54.565Z,5.47
2023-07-11T02:09:22.176Z,4.97
2023-07-11T02:11:49.633Z,4.68
2023-07-11T02:14:21.996Z,4.40
2023-07-11T02:19:20.000Z,4.28
2023-07-11T02:21:47.414Z,4.43
2023-07-11T02:24:16.379Z,4.75
2023-07-11T02:26:42.995Z,4.70
2023-07-11T02:29:10.050Z,5.07
2023-07-11T02:31:38.087Z,5.00
2023-07-11T02:34:05.145Z,5.40
2023-07-11T02:36:32.212Z,5.43
2023-07-11T02:38:59.537Z,5.40
2023-07-11T02:41:27.037Z,5.38
2023-07-11T02:43:53.896Z,5.20
2023-07-11T02:46:20.595Z,5.18
2023-07-11T02:48:47.265Z,5.00
2023-07-11T02:51:13.897Z,5.55
2023-07-11T02:53:40.506Z,4.80
2023-07-11T02:56:07.491Z,4.57
2023-07-11T02:58:34.308Z,4.80
2023-07-11T03:01:03.043Z,5.07
2023-07-11T03:03:29.751Z,4.95
2023-07-11T03:05:57.279Z,5.28
2023-07-11T03:08:24.432Z,5.22
2023-07-11T03:10:51.147Z,4.88
2023-07-11T03:13:19.379Z,4.90
2023-07-11T03:15:46.015Z,5.07
2023-07-11T03:18:14.053Z,4.68
2023-07-11T03:20:41.958Z,4.45
2023-07-11T03:23:11.069Z,4.60
2023-07-11T03:25:38.002Z,4.75
2023-07-11T03:28:05.129Z,4.50
2023-07-11T03:30:36.456Z,4.82
2023-07-11T03:33:03.764Z,4.60
2023-07-11T03:35:31.175Z,4.50
2023-07-11T03:37:57.771Z,4.78
2023-07-11T03:40:25.327Z,4.45
2023-07-11T03:42:52.673Z,5.50
2023-07-11T03:45:19.585Z,4.32
2023-07-11T03:47:46.165Z,4.72
2023-07-11T03:50:12.813Z,5.47
2023-07-11T03:52:39.375Z,4.45
2023-07-11T03:55:06.501Z,5.30
2023-07-11T03:57:33.054Z,4.28
2023-07-11T03:59:59.655Z,4.68
2023-07-11T04:02:26.327Z,5.15
2023-07-11T04:04:52.962Z,4.80
2023-07-11T04:07:19.608Z,4.55
2023-07-11T04:09:46.237Z,4.63
2023-07-11T04:12:12.784Z,5.38
2023-07-11T04:14:39.661Z,4.68
2023-07-11T04:17:06.353Z,4.72
2023-07-11T04:19:33.000Z,5.00
2023-07-11T04:21:59.587Z,4.65
2023-07-11T04:24:26.264Z,4.82
2023-07-11T04:26:52.810Z,4.78
2023-07-11T04:29:19.553Z,5.10
2023-07-11T04:31:46.183Z,5.05
2023-07-11T04:34:12.886Z,5.18
2023-07-11T04:36:39.513Z,4.55
2023-07-11T04:39:06.098Z,5.05
2023-07-11T04:41:32.821Z,5.53
2023-07-11T04:43:59.371Z,4.88
2023-07-11T04:46:26.883Z,4.63
2023-07-11T04:48:53.504Z,5.07
2023-07-11T04:51:20.282Z,4.55
2023-07-11T04:53:47.238Z,5.05
2023-07-11T04:56:14.036Z,4.78
2023-07-11T04:58:41.046Z,4.93
2023-07-11T05:01:10.462Z,4.30
2023-07-11T05:03:37.410Z,4.57
2023-07-11T05:06:05.704Z,4.97
2023-07-11T05:08:32.947Z,4.57
2023-07-11T05:11:06.387Z,4.78
2023-07-11T05:13:34.606Z,4.78
2023-07-11T05:16:08.165Z,4.60
2023-07-11T05:18:44.064Z,4.00
2023-07-11T05:21:14.069Z,5.65
2023-07-11T05:23:41.085Z,5.00
2023-07-11T05:26:08.816Z,4.47
2023-07-11T05:28:36.264Z,4.53
2023-07-11T05:31:04.991Z,4.70
2023-07-11T05:33:32.050Z,4.70
2023-07-11T05:36:20.726Z,4.93
2023-07-11T05:38:47.300Z,4.45
2023-07-11T05:41:14.229Z,5.35
2023-07-11T05:43:40.827Z,4.70
2023-07-11T05:46:07.639Z,4.53
2023-07-11T05:48:34.639Z,4.70
2023-07-11T05:51:03.841Z,4.63
2023-07-11T05:53:30.482Z,4.22
2023-07-11T05:55:58.575Z,4.50
2023-07-11T05:58:26.799Z,5.10
2023-07-11T06:00:54.834Z,4.68
2023-07-11T06:03:24.121Z,4.60
2023-07-11T06:05:51.545Z,4.05
2023-07-11T06:08:18.872Z,4.80
2023-07-11T06:10:45.726Z,4.82
2023-07-11T06:13:13.856Z,4.25
2023-07-11T06:15:40.771Z,4.28
2023-07-11T06:18:08.151Z,3.90
2023-07-11T06:20:34.926Z,3.95
2023-07-11T06:23:01.673Z,4.10
2023-07-11T06:25:28.244Z,7.20
2023-07-11T06:27:54.847Z,4.63
2023-07-11T06:30:21.622Z,5.82
2023-07-11T06:32:48.239Z,4.22
2023-07-11T06:35:14.941Z,4.47
2023-07-11T06:37:42.179Z,3.95
2023-07-11T06:40:10.146Z,4.00
2023-07-11T06:42:37.089Z,3.90
2023-07-11T06:45:04.569Z,3.97
2023-07-11T06:47:31.276Z,4.15
2023-07-11T06:49:57.875Z,3.53
2023-07-11T06:52:24.503Z,3.78
2023-07-11T06:54:51.168Z,3.50
2023-07-11T06:57:19.687Z,3.35
2023-07-11T06:59:48.547Z,3.92
2023-07-11T07:04:41.801Z,3.20
2023-07-11T07:07:08.430Z,3.17
2023-07-11T07:09:35.043Z,3.42
2023-07-11T07:12:01.696Z,3.10
2023-07-11T07:14:28.396Z,3.75
2023-07-11T07:16:55.035Z,3.10
2023-07-11T07:19:21.613Z,2.53
2023-07-11T07:21:48.191Z,2.55
2023-07-11T07:24:14.765Z,3.05
2023-07-11T07:26:42.596Z,2.47
2023-07-11T07:29:09.511Z,2.40
2023-07-11T07:31:36.151Z,3.00
2023-07-11T07:34:02.991Z,2.72
2023-07-11T07:36:29.555Z,2.85
2023-07-11T07:38:56.203Z,2.50
2023-07-11T07:41:22.954Z,2.92
2023-07-11T07:43:49.664Z,2.50
2023-07-11T07:46:18.369Z,2.00
2023-07-11T07:48:45.928Z,2.33
2023-07-11T07:53:42.046Z,2.08
2023-07-11T07:56:12.741Z,1.70
2023-07-11T07:58:43.963Z,2.30
2023-07-11T08:01:15.547Z,2.58
2023-07-11T08:03:43.130Z,1.90
2023-07-11T08:06:16.088Z,4.25
2023-07-11T08:08:45.381Z,3.15
2023-07-11T08:11:12.771Z,2.03
2023-07-11T08:13:53.633Z,3.30
2023-07-11T08:16:31.812Z,4.65
2023-07-11T08:19:01.037Z,2.60
2023-07-11T08:21:27.772Z,4.43
2023-07-11T08:23:54.440Z,1.60
2023-07-11T08:26:23.354Z,1.60
2023-07-11T08:28:53.096Z,1.80
2023-07-11T08:31:20.022Z,2.10
2023-07-11T08:33:46.970Z,1.85
2023-07-11T08:36:14.215Z,2.60
2023-07-11T08:38:40.793Z,2.00
2023-07-11T08:41:13.086Z,1.85
2023-07-11T08:43:40.324Z,2.50
2023-07-11T08:46:13.183Z,1.92
2023-07-11T08:48:51.135Z,1.73
2023-07-11T08:51:26.869Z,1.60
2023-07-11T08:54:40.006Z,1.75
2023-07-11T08:57:10.645Z,1.85
2023-07-11T08:59:55.980Z,1.88
2023-07-11T09:02:32.179Z,1.95
2023-07-11T09:05:00.466Z,1.90
2023-07-11T09:07:37.924Z,1.50
2023-07-11T09:10:38.676Z,1.65
2023-07-11T09:13:17.038Z,2.20
2023-07-11T09:16:06.810Z,2.42
2023-07-11T09:18:56.850Z,2.17
2023-07-11T09:21:32.412Z,2.15
2023-07-11T09:24:21.763Z,1.70
2023-07-11T09:26:51.125Z,2.17
2023-07-11T09:29:20.705Z,2.10
2023-07-11T09:31:54.319Z,1.70
2023-07-11T09:34:27.125Z,2.03
2023-07-11T09:37:00.412Z,1.73
2023-07-11T09:39:48.506Z,1.85
2023-07-11T09:42:39.418Z,1.73
2023-07-11T09:45:19.600Z,1.80
2023-07-11T09:47:52.958Z,3.00
2023-07-11T09:50:39.109Z,2.85
2023-07-11T09:53:20.306Z,2.05
2023-07-11T09:55:49.967Z,1.88
2023-07-11T09:58:18.838Z,1.70
2023-07-11T10:00:52.047Z,1.98
2023-07-11T10:03:23.577Z,1.90
2023-07-11T10:05:53.214Z,1.73
2023-07-11T10:08:28.175Z,2.00
2023-07-11T10:13:26.355Z,1.48
2023-07-11T10:16:00.434Z,2.00
2023-07-11T10:18:31.723Z,1.98
2023-07-11T10:21:03.084Z,3.00
2023-07-11T10:23:29.896Z,2.60
2023-07-11T10:26:16.607Z,2.30
2023-07-11T10:28:48.412Z,2.45
2023-07-11T10:31:21.538Z,2.10
2023-07-11T10:33:57.460Z,1.98
2023-07-11T10:36:32.123Z,3.22
2023-07-11T10:39:05.679Z,2.17
2023-07-11T10:41:41.736Z,1.98
2023-07-11T10:44:16.313Z,2.15
2023-07-11T10:46:51.761Z,2.00
2023-07-11T10:49:51.595Z,3.97
2023-07-11T10:52:25.069Z,1.88
2023-07-11T10:54:56.649Z,4.13
2023-07-11T10:57:44.022Z,5.03
2023-07-11T11:00:17.564Z,2.33
2023-07-11T11:02:47.127Z,2.60
2023-07-11T11:05:39.243Z,2.20
2023-07-11T11:08:15.576Z,2.00
2023-07-11T11:10:53.252Z,1.90
2023-07-11T11:13:32.081Z,2.13
2023-07-11T11:16:32.695Z,2.05
2023-07-11T11:19:34.319Z,2.10
2023-07-11T11:22:17.193Z,2.63
2023-07-11T11:25:01.332Z,2.25
2023-07-11T11:28:17.289Z,2.30
2023-07-11T11:31:22.565Z,2.35
2023-07-11T11:36:29.399Z,2.45
2023-07-11T11:39:11.219Z,1.83
2023-07-11T11:41:44.519Z,1.95
2023-07-11T11:49:39.390Z,2.53
2023-07-11T11:52:08.658Z,2.50
2023-07-11T11:54:47.796Z,3.08
2023-07-11T11:57:25.123Z,2.75
2023-07-11T11:59:52.612Z,3.22
2023-07-11T12:02:27.152Z,2.60
2023-07-11T12:05:18.300Z,2.38
2023-07-11T12:07:48.046Z,2.75
2023-07-11T12:10:23.697Z,2.35
2023-07-11T12:13:17.444Z,2.50
2023-07-11T12:15:49.044Z,2.85
2023-07-11T12:18:28.700Z,2.97
2023-07-11T12:21:17.813Z,2.85
2023-07-11T12:24:30.209Z,2.72
2023-07-11T12:26:36.431Z,2.80
2023-07-11T12:29:40.153Z,2.97
2023-07-11T12:32:47.539Z,3.35
2023-07-11T12:35:24.082Z,3.28
2023-07-11T12:38:02.479Z,2.88
2023-07-11T12:40:38.873Z,3.00
2023-07-11T12:43:16.574Z,3.13
2023-07-11T12:45:48.952Z,3.15
2023-07-11T12:48:24.121Z,3.25
2023-07-11T12:50:56.777Z,3.35
2023-07-11T12:53:23.374Z,3.80
2023-07-11T12:55:53.087Z,3.42
2023-07-11T12:58:32.343Z,3.08
2023-07-11T13:01:00.071Z,3.17
2023-07-11T13:03:37.504Z,3.83
2023-07-11T13:06:22.070Z,4.45
2023-07-11T13:08:49.480Z,4.70
2023-07-11T13:11:21.708Z,4.63
2023-07-11T13:13:49.461Z,5.72
2023-07-11T13:16:16.417Z,5.50
2023-07-11T13:18:45.818Z,5.18
2023-07-11T13:21:12.881Z,5.82
2023-07-11T13:23:42.799Z,6.13
2023-07-11T13:26:11.908Z,6.15
2023-07-11T13:28:40.362Z,6.25
2023-07-11T13:38:51.971Z,6.90
2023-07-11T13:43:47.601Z,6.38
2023-07-11T13:46:16.395Z,6.18
2023-07-11T13:48:47.253Z,6.22
2023-07-11T13:51:34.353Z,6.00
2023-07-11T13:54:22.574Z,6.03
2023-07-11T13:56:49.494Z,5.50
2023-07-11T13:59:18.257Z,5.68
2023-07-11T14:01:45.814Z,6.10
2023-07-11T14:04:21.249Z,5.60
2023-07-11T14:06:48.158Z,6.30
2023-07-11T14:09:14.804Z,5.95
2023-07-11T14:11:45.488Z,6.53
2023-07-11T14:14:24.865Z,6.05
2023-07-11T14:17:01.795Z,6.43
2023-07-11T14:19:33.990Z,7.25
2023-07-11T14:22:03.702Z,6.38
2023-07-11T14:24:30.338Z,6.68
2023-07-11T14:26:56.910Z,6.22
2023-07-11T14:29:25.514Z,6.53
2023-07-11T14:31:53.721Z,6.60
2023-07-11T14:34:26.229Z,6.25
2023-07-11T14:36:54.934Z,6.18
2023-07-11T14:39:22.381Z,6.88
2023-07-11T14:41:50.783Z,6.40
2023-07-11T14:46:52.011Z,6.65
2023-07-11T14:49:19.915Z,6.45
2023-07-11T14:51:48.261Z,6.45
2023-07-11T14:59:23.313Z,6.35
2023-07-11T15:01:51.236Z,9.27
2023-07-11T15:11:52.235Z,7.00
2023-07-11T15:16:52.840Z,6.22
2023-07-11T15:19:26.839Z,7.18
2023-07-11T15:22:07.959Z,6.50
2023-07-11T15:24:45.406Z,7.47
2023-07-11T15:27:17.569Z,6.90
2023-07-11T15:29:44.285Z,6.93
2023-07-11T15:32:23.416Z,7.20
2023-07-11T15:34:50.616Z,5.93
2023-07-11T15:37:17.960Z,6.43
2023-07-11T15:39:44.590Z,6.47
2023-07-11T15:42:20.038Z,6.50
2023-07-11T15:44:52.846Z,8.43
2023-07-11T15:47:19.686Z,7.78
2023-07-11T15:49:46.936Z,9.57
2023-07-11T15:52:13.588Z,6.68
2023-07-11T15:54:40.216Z,6.55
2023-07-11T15:57:27.733Z,6.45
2023-07-11T15:59:56.605Z,6.75
2023-07-11T16:02:25.158Z,6.60
2023-07-11T16:04:52.818Z,7.03
2023-07-11T16:07:22.075Z,6.68
2023-07-11T16:09:49.012Z,7.25
2023-07-11T16:12:17.548Z,6.90
2023-07-11T16:14:45.566Z,7.80
2023-07-11T16:17:17.211Z,6.47
2023-07-11T16:19:47.657Z,7.32
2023-07-11T16:22:18.294Z,7.05
2023-07-11T16:24:45.563Z,7.45
2023-07-11T16:27:18.147Z,10.30
2023-07-11T16:29:48.662Z,7.63
2023-07-11T16:32:16.223Z,7.60
2023-07-11T16:34:44.997Z,7.13
2023-07-11T16:37:21.289Z,7.25
2023-07-11T16:39:48.926Z,6.38
2023-07-11T16:42:20.080Z,7.00
2023-07-11T16:44:46.719Z,6.90
2023-07-11T16:47:13.435Z,6.88
2023-07-11T16:49:40.949Z,6.78
2023-07-11T16:52:13.747Z,6.95
2023-07-11T16:54:41.096Z,7.10
2023-07-11T16:57:17.484Z,7.63
2023-07-11T16:59:44.156Z,7.15
2023-07-11T17:02:34.179Z,7.55
2023-07-11T17:05:01.170Z,6.95
2023-07-11T17:07:30.395Z,8.65
2023-07-11T17:09:58.789Z,9.60
2023-07-11T17:12:26.331Z,7.10
2023-07-11T17:14:53.780Z,6.85
2023-07-11T17:17:27.254Z,7.72
2023-07-11T17:19:57.315Z,7.18
2023-07-11T17:22:24.523Z,6.68
2023-07-11T17:24:51.185Z,7.30
2023-07-11T17:27:23.033Z,7.40
2023-07-11T17:29:52.324Z,7.68
2023-07-11T17:32:22.781Z,7.38
2023-07-11T17:34:50.412Z,7.20
2023-07-11T17:37:31.073Z,7.38
2023-07-11T17:39:58.474Z,7.25
2023-07-11T17:42:26.320Z,7.28
2023-07-11T17:44:56.766Z,7.97
2023-07-11T17:49:59.084Z,7.20
2023-07-11T17:52:29.173Z,7.55
2023-07-11T17:54:56.198Z,7.18
2023-07-11T17:57:27.867Z,10.57
2023-07-11T17:59:54.627Z,8.45
2023-07-11T18:02:27.367Z,7.13
2023-07-11T18:04:56.828Z,7.60
2023-07-11T18:07:26.244Z,7.25
2023-07-11T18:09:53.604Z,7.15
2023-07-11T18:12:29.675Z,6.93
2023-07-11T18:14:56.870Z,7.32
2023-07-11T18:17:27.701Z,7.38
2023-07-11T18:19:54.395Z,6.72
2023-07-11T18:22:26.121Z,7.03
2023-07-11T18:24:55.828Z,7.82
2023-07-11T18:27:28.868Z,7.18
2023-07-11T18:29:56.004Z,7.55
2023-07-11T18:32:25.245Z,7.78
2023-07-11T18:34:55.194Z,7.75
2023-07-11T18:37:23.592Z,7.05
2023-07-11T18:39:50.369Z,8.20
2023-07-11T18:42:22.704Z,6.97
2023-07-11T18:44:51.390Z,7.20
2023-07-11T18:47:34.053Z,6.85
2023-07-11T18:50:01.108Z,7.22
2023-07-11T18:52:29.669Z,8.18
2023-07-11T18:54:58.359Z,7.15
2023-07-11T18:57:29.231Z,8.45
2023-07-11T18:59:56.727Z,7.63
2023-07-11T19:02:28.756Z,8.45
2023-07-11T19:04:58.223Z,7.38
2023-07-11T19:07:30.235Z,6.45
2023-07-11T19:09:59.123Z,7.20
2023-07-11T19:12:37.172Z,7.07
2023-07-11T19:15:11.768Z,7.40
2023-07-11T19:17:58.474Z,7.20
2023-07-11T19:20:30.649Z,7.60
2023-07-11T19:22:59.351Z,7.10
2023-07-11T19:25:28.824Z,7.18
2023-07-11T19:28:00.904Z,7.07
2023-07-11T19:30:29.735Z,7.22
2023-07-11T19:32:58.457Z,8.00
2023-07-11T19:35:27.377Z,7.65
2023-07-11T19:37:57.303Z,7.40
2023-07-11T19:40:28.258Z,7.88
2023-07-11T19:42:55.759Z,7.43
2023-07-11T19:45:25.366Z,7.82
2023-07-11T19:47:52.087Z,7.32
2023-07-11T19:50:40.344Z,7.53
2023-07-11T19:53:09.489Z,7.50
2023-07-11T19:55:37.353Z,7.32
2023-07-11T19:58:05.598Z,7.72
2023-07-11T20:00:33.904Z,7.63
2023-07-11T20:03:01.252Z,7.57
2023-07-11T20:05:28.907Z,7.97
2023-07-11T20:07:56.358Z,6.55
2023-07-11T20:10:42.074Z,8.27
2023-07-11T20:13:15.261Z,7.13
2023-07-11T20:15:53.747Z,7.85
2023-07-11T20:18:22.245Z,7.18
2023-07-11T20:20:54.308Z,7.80
2023-07-11T20:23:21.100Z,7.80
2023-07-11T20:25:53.364Z,7.63
2023-07-11T20:28:21.776Z,7.25
2023-07-11T20:30:55.245Z,8.10
2023-07-11T20:33:22.643Z,7.85
2023-07-11T20:35:52.439Z,8.15
2023-07-11T20:38:22.498Z,8.07
2023-07-11T20:40:50.464Z,8.00
2023-07-11T20:43:18.583Z,8.40
2023-07-11T20:45:47.778Z,7.88
2023-07-11T20:48:22.793Z,7.85
2023-07-11T20:50:51.705Z,7.68
2023-07-11T20:53:21.868Z,7.85
2023-07-11T20:55:52.733Z,8.00
2023-07-11T20:58:19.671Z,7.35
2023-07-11T21:00:46.996Z,7.85
2023-07-11T21:03:15.389Z,7.85
2023-07-11T21:05:44.412Z,8.27
2023-07-11T21:08:31.760Z,8.07
2023-07-11T21:11:01.430Z,8.23
2023-07-11T21:13:28.150Z,7.57
2023-07-11T21:15:55.961Z,7.40
2023-07-11T21:18:24.228Z,7.70
2023-07-11T21:20:54.905Z,7.47
2023-07-11T21:23:22.929Z,8.25
2023-07-11T21:25:49.906Z,7.57
2023-07-11T21:28:31.451Z,7.50
2023-07-11T21:31:04.018Z,7.20
2023-07-11T21:33:32.293Z,7.28
2023-07-11T21:36:01.743Z,7.60
2023-07-11T21:38:30.697Z,7.15
2023-07-11T21:40:59.878Z,7.25
2023-07-11T21:43:26.633Z,7.20
2023-07-11T21:45:56.094Z,6.80
2023-07-11T21:48:28.468Z,7.47
2023-07-11T21:51:00.310Z,7.55
2023-07-11T21:53:30.010Z,7.30
2023-07-11T21:56:13.284Z,6.93
2023-07-11T21:58:39.884Z,6.93
2023-07-11T22:01:07.453Z,7.43
2023-07-11T22:03:36.115Z,7.32
2023-07-11T22:06:11.115Z,7.05
2023-07-11T22:08:37.664Z,7.65
2023-07-11T22:11:04.264Z,6.75
2023-07-11T22:13:33.407Z,7.07
2023-07-11T22:16:00.251Z,7.10
2023-07-11T22:18:30.088Z,6.43
2023-07-11T22:20:57.774Z,7.55
2023-07-11T22:23:24.867Z,6.93
2023-07-11T22:25:51.450Z,6.80
2023-07-11T22:28:21.416Z,6.97
2023-07-11T22:30:50.000Z,6.50
2023-07-11T22:33:18.002Z,6.50
2023-07-11T22:35:45.618Z,7.03
2023-07-11T22:38:17.312Z,6.88
2023-07-11T22:40:46.646Z,7.03
2023-07-11T22:43:30.458Z,6.82
2023-07-11T22:45:59.064Z,6.00
2023-07-11T22:48:28.325Z,6.18
2023-07-11T22:50:59.770Z,6.28
2023-07-11T22:53:29.471Z,6.45
2023-07-11T22:55:59.315Z,6.80
2023-07-11T22:58:34.570Z,6.28
2023-07-11T23:01:04.553Z,6.38
2023-07-11T23:03:31.650Z,5.90
2023-07-11T23:06:26.834Z,6.03
2023-07-11T23:08:54.963Z,6.50
2023-07-11T23:11:22.989Z,6.72
2023-07-11T23:13:49.772Z,6.30
2023-07-11T23:16:28.902Z,5.95
2023-07-11T23:18:57.669Z,5.93
2023-07-11T23:21:24.424Z,6.38
2023-07-11T23:23:51.012Z,6.10
2023-07-11T23:26:18.305Z,6.13
2023-07-11T23:28:45.361Z,5.80
2023-07-11T23:31:13.781Z,5.70
2023-07-11T23:36:15.909Z,5.70
2023-07-11T23:41:15.276Z,5.78
2023-07-11T23:43:43.376Z,6.38
2023-07-11T23:46:32.081Z,5.70
2023-07-11T23:48:59.420Z,5.72
2023-07-11T23:51:28.945Z,6.45
2023-07-11T23:53:55.964Z,5.78
2023-07-11T23:56:29.204Z,5.55
2023-07-11T23:58:57.278Z,6.13
